Time;durP1;ratioP1;P1;durP2;ratioP2;P2;SDS_P1;SDS_P2;PMS_P1;PMS_P2;Temp;Humidity;BMP_temperature;BMP_pressure;BME280_temperature;BME280_humidity;BME280_pressure;Samples;Min_cycle;Max_cycle;Signal;HPM_P1;HPM_P2
2023/09/30 00:00:57;;;;;;;15.20;14.00;;;21.80;1.00;;;;;;4849816;29;20888;-46
2023/09/30 00:03:23;;;;;;;15.07;13.73;;;21.70;1.00;;;;;;4849831;29;20429;-47
2023/09/30 00:05:49;;;;;;;16.00;14.70;;;21.60;1.00;;;;;;4849395;29;20430;-45
2023/09/30 00:08:15;;;;;;;17.17;15.40;;;21.60;1.00;;;;;;4849144;29;20533;-40
2023/09/30 00:10:40;;;;;;;16.37;15.07;;;21.50;1.00;;;;;;4849321;29;20196;-40
2023/09/30 00:13:09;;;;;;;15.90;14.50;;;21.50;1.00;;;;;;4849478;29;20192;-44
2023/09/30 00:15:35;;;;;;;16.57;15.27;;;21.50;1.00;;;;;;4849235;29;20624;-42
2023/09/30 00:18:01;;;;;;;17.13;15.80;;;21.40;1.00;;;;;;4849251;29;20562;-44
2023/09/30 00:20:27;;;;;;;17.70;15.53;;;21.40;1.00;;;;;;4849260;29;20180;-43
2023/09/30 00:22:53;;;;;;;17.30;15.57;;;21.40;1.00;;;;;;4849079;29;20429;-42
2023/09/30 00:25:20;;;;;;;16.33;14.87;;;21.30;1.00;;;;;;4848989;29;20432;-43
2023/09/30 00:27:46;;;;;;;15.80;14.50;;;21.20;1.00;;;;;;4849339;29;20199;-44
2023/09/30 00:30:12;;;;;;;15.67;14.57;;;21.20;1.00;;;;;;4849027;29;20822;-46
2023/09/30 00:32:39;;;;;;;15.83;14.60;;;21.10;1.00;;;;;;4849310;29;20267;-44
2023/09/30 00:35:11;;;;;;;15.53;14.17;;;21.00;1.00;;;;;;4848417;29;20295;-44
2023/09/30 00:37:37;;;;;;;14.60;13.60;;;21.00;1.00;;;;;;4848924;29;20445;-50
2023/09/30 00:40:04;;;;;;;13.50;12.70;;;21.00;1.00;;;;;;4848714;29;20486;-44
2023/09/30 00:42:30;;;;;;;12.90;12.10;;;21.00;1.00;;;;;;4848733;29;20915;-41
2023/09/30 00:44:55;;;;;;;12.10;11.50;;;20.90;99.90;;;;;;4848966;29;20430;-43
2023/09/30 00:47:22;;;;;;;11.77;11.17;;;20.80;99.90;;;;;;4848684;29;20282;-47
2023/09/30 00:49:48;;;;;;;11.93;11.30;;;20.70;1.00;;;;;;4848630;29;20372;-41
2023/09/30 00:52:14;;;;;;;11.40;10.90;;;20.60;39.80;;;;;;4848368;29;20437;-44
2023/09/30 00:54:40;;;;;;;11.93;11.33;;;20.50;99.90;;;;;;4848253;29;20520;-46
2023/09/30 00:57:06;;;;;;;12.47;11.67;;;20.40;99.90;;;;;;4848617;29;20704;-46
2023/09/30 00:59:32;;;;;;;12.80;12.20;;;20.30;1.00;;;;;;4848541;29;20185;-40
2023/09/30 01:02:00;;;;;;;11.90;11.37;;;20.10;1.00;;;;;;4848832;29;20473;-45
2023/09/30 01:04:27;;;;;;;12.27;11.47;;;20.10;1.00;;;;;;4848418;29;20425;-44
2023/09/30 01:06:53;;;;;;;11.80;11.20;;;20.10;1.00;;;;;;4848084;29;20429;-41
2023/09/30 01:09:20;;;;;;;11.73;11.13;;;20.00;99.90;;;;;;4847852;29;20834;-44
2023/09/30 01:11:45;;;;;;;12.17;11.57;;;20.10;91.40;;;;;;4848560;29;20524;-47
2023/09/30 01:14:42;;;;;;;12.10;11.50;;;20.00;1.00;;;;;;4848071;29;20975;-45
2023/09/30 01:17:08;;;;;;;11.73;11.13;;;20.00;1.00;;;;;;4846917;29;20406;-44
2023/09/30 01:19:34;;;;;;;12.00;11.20;;;19.90;65.70;;;;;;4848291;29;20433;-44
2023/09/30 01:22:02;;;;;;;10.67;10.20;;;19.90;65.10;;;;;;4848119;29;20436;-42
2023/09/30 01:24:28;;;;;;;10.63;10.13;;;19.70;1.00;;;;;;4847712;29;20998;-45
2023/09/30 01:26:55;;;;;;;10.70;10.30;;;19.70;1.00;;;;;;4848436;29;20508;-45
2023/09/30 01:29:22;;;;;;;10.40;10.00;;;19.60;1.00;;;;;;4848363;29;20432;-46
2023/09/30 01:31:49;;;;;;;10.73;10.23;;;19.40;1.00;;;;;;4846359;29;20533;-44
2023/09/30 01:34:15;;;;;;;10.73;10.23;;;19.30;1.00;;;;;;4847777;29;20520;-44
2023/09/30 01:36:42;;;;;;;10.20;9.60;;;19.20;99.90;;;;;;4847895;29;20504;-47
2023/09/30 01:39:12;;;;;;;10.57;10.07;;;19.10;1.00;;;;;;4848114;29;20801;-49
2023/09/30 01:41:38;;;;;;;10.50;10.00;;;18.90;99.90;;;;;;4847583;29;20508;-42
2023/09/30 01:44:04;;;;;;;10.30;9.90;;;18.90;1.00;;;;;;4847123;29;20445;-44
2023/09/30 01:46:30;;;;;;;10.40;9.90;;;18.90;99.90;;;;;;4847720;29;20425;-44
2023/09/30 01:48:56;;;;;;;10.40;10.00;;;18.80;99.90;;;;;;4847747;29;20460;-49
2023/09/30 01:51:24;;;;;;;10.10;9.70;;;18.60;1.00;;;;;;4847908;29;20619;-47
2023/09/30 01:53:50;;;;;;;10.80;10.30;;;18.50;30.60;;;;;;4847623;29;20193;-44
2023/09/30 01:56:16;;;;;;;10.50;10.00;;;18.40;1.00;;;;;;4847502;29;20438;-46
2023/09/30 01:58:41;;;;;;;11.10;10.57;;;18.40;99.90;;;;;;4847832;29;20433;-44
2023/09/30 02:01:08;;;;;;;10.63;10.13;;;18.40;99.90;;;;;;4847546;29;20417;-44
2023/09/30 02:03:33;;;;;;;11.00;10.30;;;18.30;1.00;;;;;;4847342;29;20193;-49
2023/09/30 02:05:59;;;;;;;10.90;10.40;;;18.20;99.90;;;;;;4847463;29;20884;-48
2023/09/30 02:08:24;;;;;;;11.20;10.50;;;18.20;99.90;;;;;;4847148;29;20325;-46
2023/09/30 02:10:53;;;;;;;10.73;10.13;;;18.10;99.90;;;;;;4847606;29;20308;-46
2023/09/30 02:13:19;;;;;;;11.10;10.50;;;18.10;99.90;;;;;;4847421;29;20189;-42
2023/09/30 02:15:45;;;;;;;11.10;10.50;;;18.10;99.90;;;;;;4847274;29;20460;-43
2023/09/30 02:18:12;;;;;;;11.30;10.80;;;18.10;99.90;;;;;;4847541;29;20421;-45
2023/09/30 02:20:40;;;;;;;10.93;10.33;;;18.10;1.00;;;;;;4848692;29;20508;-44
2023/09/30 02:23:11;;;;;;;10.97;10.37;;;18.00;99.90;;;;;;4851258;29;20549;-45
2023/09/30 02:25:38;;;;;;;11.50;10.90;;;17.90;1.00;;;;;;4850982;29;20421;-49
2023/09/30 02:28:04;;;;;;;11.60;10.70;;;17.80;1.00;;;;;;4850898;29;20512;-52
2023/09/30 02:30:30;;;;;;;11.63;11.03;;;17.70;1.00;;;;;;4851506;29;20424;-43
2023/09/30 02:32:56;;;;;;;12.00;11.30;;;17.60;1.00;;;;;;4851168;29;20413;-44
2023/09/30 02:35:22;;;;;;;11.93;11.13;;;17.50;1.00;;;;;;4850799;29;20881;-42
2023/09/30 02:37:49;;;;;;;11.50;10.90;;;17.40;29.00;;;;;;4851223;29;20790;-43
2023/09/30 02:40:17;;;;;;;11.70;11.10;;;17.30;35.10;;;;;;4850939;29;20781;-46
2023/09/30 02:42:43;;;;;;;11.70;11.10;;;17.30;46.20;;;;;;4851048;29;20417;-45
2023/09/30 02:45:10;;;;;;;11.90;11.30;;;17.20;72.70;;;;;;4850549;29;20567;-44
2023/09/30 02:47:37;;;;;;;11.13;10.43;;;17.20;82.60;;;;;;4851141;29;20421;-45
2023/09/30 02:50:04;;;;;;;11.60;11.00;;;17.20;59.80;;;;;;4849324;29;20437;-45
2023/09/30 02:52:31;;;;;;;11.27;10.60;;;17.20;1.00;;;;;;4850745;29;20421;-45
2023/09/30 02:54:57;;;;;;;10.97;10.33;;;17.20;1.00;;;;;;4850373;29;20928;-45
2023/09/30 02:57:23;;;;;;;12.00;11.37;;;17.10;1.00;;;;;;4850748;29;20945;-48
2023/09/30 02:59:49;;;;;;;11.30;10.70;;;17.20;1.00;;;;;;4850861;29;21007;-43
2023/09/30 03:02:15;;;;;;;11.27;10.67;;;17.10;1.00;;;;;;4851143;29;20444;-45
2023/09/30 03:04:42;;;;;;;11.50;10.70;;;17.10;99.90;;;;;;4850286;29;20216;-48
2023/09/30 03:07:08;;;;;;;12.07;11.37;;;17.10;99.90;;;;;;4850697;29;20632;-45
2023/09/30 03:09:35;;;;;;;11.50;10.90;;;17.20;99.90;;;;;;4850136;29;20552;-48
2023/09/30 03:12:02;;;;;;;11.27;10.77;;;17.30;45.00;;;;;;4850484;29;20418;-44
2023/09/30 03:14:30;;;;;;;11.37;10.70;;;17.20;57.70;;;;;;4850109;29;20456;-50
2023/09/30 03:16:57;;;;;;;11.70;11.10;;;17.30;99.90;;;;;;4850248;29;20421;-42
2023/09/30 03:19:22;;;;;;;12.10;11.30;;;17.40;1.00;;;;;;4850601;29;20935;-48
2023/09/30 03:21:48;;;;;;;11.27;10.37;;;17.20;99.90;;;;;;4848935;29;20433;-47
2023/09/30 03:24:14;;;;;;;11.27;10.77;;;17.20;99.90;;;;;;4850515;29;20698;-44
2023/09/30 03:26:41;;;;;;;11.20;10.60;;;17.20;99.90;;;;;;4849944;29;20603;-43
2023/09/30 03:29:08;;;;;;;11.07;10.47;;;17.30;99.90;;;;;;4849978;29;20203;-45
2023/09/30 03:31:34;;;;;;;11.80;11.10;;;17.30;99.90;;;;;;4850365;29;20433;-44
2023/09/30 03:34:00;;;;;;;12.10;11.40;;;17.20;99.90;;;;;;4850158;29;20436;-47
2023/09/30 03:36:26;;;;;;;11.73;11.03;;;17.10;99.90;;;;;;4849674;29;20433;-46
2023/09/30 03:38:54;;;;;;;11.93;11.13;;;17.00;99.90;;;;;;4849904;29;20185;-48
2023/09/30 03:41:20;;;;;;;11.53;10.73;;;17.00;99.90;;;;;;4849893;29;20188;-41
2023/09/30 03:43:47;;;;;;;12.13;11.33;;;17.00;99.90;;;;;;4849547;29;20687;-45
2023/09/30 03:46:12;;;;;;;12.37;11.60;;;16.90;99.90;;;;;;4849979;29;20238;-46
2023/09/30 03:48:42;;;;;;;11.77;10.97;;;16.90;99.90;;;;;;4849956;29;20521;-49
2023/09/30 03:51:17;;;;;;;11.03;10.53;;;16.90;99.90;;;;;;4849783;29;20173;-42
2023/09/30 03:53:44;;;;;;;11.20;10.60;;;16.90;99.90;;;;;;4848786;29;20440;-45
2023/09/30 03:56:13;;;;;;;11.87;11.10;;;16.80;99.90;;;;;;4849814;29;20433;-43
2023/09/30 03:58:41;;;;;;;12.70;12.00;;;16.80;99.90;;;;;;4849994;29;21000;-49
2023/09/30 04:01:07;;;;;;;10.63;9.90;;;16.80;99.90;;;;;;4849475;29;20426;-48
2023/09/30 04:03:33;;;;;;;12.20;11.30;;;16.70;99.90;;;;;;4849634;29;20505;-45
2023/09/30 04:05:59;;;;;;;11.50;10.80;;;16.60;99.90;;;;;;4849360;29;20559;-43
2023/09/30 04:08:24;;;;;;;11.97;11.27;;;16.60;99.90;;;;;;4848424;29;20996;-44
2023/09/30 04:10:50;;;;;;;11.87;11.20;;;16.60;99.90;;;;;;4849499;29;20196;-47
2023/09/30 04:13:16;;;;;;;12.37;11.67;;;16.60;99.90;;;;;;4849473;29;20850;-48
2023/09/30 04:15:44;;;;;;;12.20;11.30;;;16.50;99.90;;;;;;4849151;29;20200;-44
2023/09/30 04:18:11;;;;;;;11.80;10.97;;;16.60;99.90;;;;;;4849401;29;21285;-48
2023/09/30 04:20:39;;;;;;;11.77;10.93;;;16.50;99.90;;;;;;4848041;29;20532;-47
2023/09/30 04:23:06;;;;;;;12.13;11.27;;;16.50;99.90;;;;;;4849593;29;20756;-46
2023/09/30 04:25:32;;;;;;;11.17;10.47;;;16.50;99.90;;;;;;4848751;29;21055;-45
2023/09/30 04:27:58;;;;;;;11.67;10.77;;;16.40;99.90;;;;;;4849535;29;20945;-47
2023/09/30 04:30:24;;;;;;;12.17;11.27;;;16.40;99.90;;;;;;4848862;29;20249;-47
2023/09/30 04:32:49;;;;;;;11.63;10.90;;;16.30;99.90;;;;;;4849371;29;20862;-44
2023/09/30 04:35:15;;;;;;;12.20;11.30;;;16.30;99.90;;;;;;4849059;29;20559;-47
2023/09/30 04:37:41;;;;;;;11.90;11.10;;;16.20;99.90;;;;;;4848912;29;20196;-48
2023/09/30 04:40:19;;;;;;;11.03;10.50;;;16.10;99.90;;;;;;4849081;29;20196;-41
2023/09/30 04:42:48;;;;;;;12.10;11.13;;;16.00;99.90;;;;;;4848300;29;20188;-44
2023/09/30 04:45:16;;;;;;;11.90;11.30;;;15.90;99.90;;;;;;4848851;29;20520;-45
2023/09/30 04:47:44;;;;;;;12.00;11.10;;;15.90;99.90;;;;;;4847509;29;20425;-46
2023/09/30 04:50:11;;;;;;;12.53;11.63;;;15.70;99.90;;;;;;4848641;29;20421;-41
2023/09/30 04:52:38;;;;;;;12.13;11.43;;;15.70;99.90;;;;;;4849077;29;20421;-44
2023/09/30 04:55:04;;;;;;;12.17;11.23;;;15.60;99.90;;;;;;4848888;29;20429;-51
2023/09/30 04:57:31;;;;;;;12.00;11.10;;;15.60;99.90;;;;;;4847766;29;20509;-43
2023/09/30 04:59:57;;;;;;;13.13;12.23;;;15.60;99.90;;;;;;4848209;29;20700;-46
2023/09/30 05:02:24;;;;;;;11.50;10.70;;;15.50;99.90;;;;;;4848595;29;20513;-48
2023/09/30 05:04:49;;;;;;;12.23;11.37;;;15.40;99.90;;;;;;4848676;29;21034;-43
2023/09/30 05:07:15;;;;;;;12.60;11.40;;;15.40;99.90;;;;;;4848652;29;20480;-47
2023/09/30 05:09:41;;;;;;;12.27;11.40;;;15.30;99.90;;;;;;4848695;29;20328;-44
2023/09/30 05:12:07;;;;;;;12.73;11.50;;;15.30;99.90;;;;;;4847234;29;20642;-46
2023/09/30 05:14:33;;;;;;;11.77;11.07;;;15.30;99.90;;;;;;4848303;29;20429;-46
2023/09/30 05:16:59;;;;;;;11.73;10.97;;;15.30;99.90;;;;;;4847100;29;20602;-45
2023/09/30 05:19:24;;;;;;;12.67;11.77;;;15.20;99.90;;;;;;4848384;29;21201;-45
2023/09/30 05:21:50;;;;;;;13.03;11.87;;;15.20;99.90;;;;;;4848282;29;20519;-45
2023/09/30 05:24:18;;;;;;;12.10;11.30;;;15.20;99.90;;;;;;4847964;29;20714;-45
2023/09/30 05:26:44;;;;;;;12.23;11.33;;;15.20;99.90;;;;;;4848297;29;20188;-46
2023/09/30 05:29:10;;;;;;;12.17;11.37;;;15.30;99.90;;;;;;4848419;29;20429;-46
2023/09/30 05:31:36;;;;;;;12.93;12.03;;;15.30;99.90;;;;;;4847839;29;20620;-48
2023/09/30 05:34:02;;;;;;;11.67;10.87;;;15.40;99.90;;;;;;4848177;29;20410;-48
2023/09/30 05:36:29;;;;;;;12.17;11.47;;;15.40;99.90;;;;;;4847663;29;20469;-47
2023/09/30 05:38:58;;;;;;;12.90;11.90;;;15.40;99.90;;;;;;4847972;29;20944;-45
2023/09/30 05:41:24;;;;;;;12.80;12.00;;;15.30;99.90;;;;;;4847732;29;20500;-45
2023/09/30 05:43:50;;;;;;;12.13;11.30;;;15.40;99.90;;;;;;4848075;29;20485;-41
2023/09/30 05:46:15;;;;;;;12.27;11.30;;;15.40;99.90;;;;;;4847590;29;20430;-44
2023/09/30 05:48:42;;;;;;;11.90;11.00;;;15.40;99.90;;;;;;4848113;29;20593;-51
2023/09/30 05:51:07;;;;;;;11.93;10.93;;;15.50;99.90;;;;;;4847914;29;20603;-45
2023/09/30 05:53:33;;;;;;;11.87;10.97;;;15.50;99.90;;;;;;4847487;29;20445;-46
2023/09/30 05:55:59;;;;;;;11.33;10.60;;;15.50;99.90;;;;;;4847201;29;20216;-43
2023/09/30 05:58:26;;;;;;;11.87;11.03;;;15.50;99.90;;;;;;4847431;29;20194;-48
2023/09/30 06:00:53;;;;;;;12.70;11.77;;;15.50;99.90;;;;;;4847427;29;21154;-43
2023/09/30 06:03:19;;;;;;;12.90;11.90;;;15.50;99.90;;;;;;4847971;29;20433;-46
2023/09/30 06:05:44;;;;;;;12.70;11.90;;;15.50;99.90;;;;;;4847299;29;20468;-47
2023/09/30 06:08:13;;;;;;;11.90;11.20;;;15.50;99.90;;;;;;4847466;29;20499;-44
2023/09/30 06:10:42;;;;;;;12.47;11.60;;;15.50;99.90;;;;;;4847897;29;20592;-44
2023/09/30 06:13:08;;;;;;;12.03;11.33;;;15.50;99.90;;;;;;4847311;29;20839;-46
2023/09/30 06:15:36;;;;;;;12.33;11.43;;;15.50;99.90;;;;;;4847209;29;20506;-45
2023/09/30 06:18:04;;;;;;;12.23;11.33;;;15.60;99.90;;;;;;4861061;29;20438;-46
2023/09/30 06:20:30;;;;;;;11.97;11.20;;;15.60;99.90;;;;;;4845355;29;20531;-46
2023/09/30 06:22:56;;;;;;;12.67;11.80;;;15.60;99.90;;;;;;4845462;29;20445;-44
2023/09/30 06:25:27;;;;;;;12.80;12.10;;;15.60;99.90;;;;;;4845546;29;21527;-41
2023/09/30 06:27:54;;;;;;;12.03;11.30;;;15.60;99.90;;;;;;4847230;29;20440;-47
2023/09/30 06:30:20;;;;;;;11.77;11.10;;;15.50;99.90;;;;;;4846493;29;20425;-46
2023/09/30 06:32:47;;;;;;;11.80;11.10;;;15.50;99.90;;;;;;4847206;29;20425;-49
2023/09/30 06:35:13;;;;;;;12.23;11.33;;;15.50;99.90;;;;;;4846982;29;20943;-44
2023/09/30 06:37:39;;;;;;;12.27;11.30;;;15.50;99.90;;;;;;4846608;29;20409;-48
2023/09/30 06:40:12;;;;;;;11.70;10.73;;;15.50;99.90;;;;;;4847130;29;20425;-47
2023/09/30 06:42:39;;;;;;;12.60;11.60;;;15.50;99.90;;;;;;4845613;29;20433;-48
2023/09/30 06:45:06;;;;;;;12.33;11.53;;;15.70;99.90;;;;;;4845694;29;20504;-49
2023/09/30 06:47:33;;;;;;;11.90;10.80;;;15.80;99.90;;;;;;4846818;29;21248;-45
2023/09/30 06:50:07;;;;;;;12.07;11.47;;;15.80;99.90;;;;;;4846051;29;20792;-43
2023/09/30 06:52:45;;;;;;;11.40;10.40;;;15.90;99.90;;;;;;4845237;29;20436;-49
2023/09/30 06:55:13;;;;;;;12.40;11.30;;;15.90;99.90;;;;;;4845336;29;20447;-43
2023/09/30 06:57:40;;;;;;;11.60;10.90;;;16.00;99.90;;;;;;4847062;29;20798;-42
2023/09/30 07:00:11;;;;;;;12.17;11.10;;;16.00;99.90;;;;;;4845734;29;20711;-46
2023/09/30 07:02:38;;;;;;;12.60;11.60;;;15.90;99.90;;;;;;4845981;29;20449;-41
2023/09/30 07:05:11;;;;;;;11.47;10.80;;;16.00;99.90;;;;;;4846353;29;20469;-45
2023/09/30 07:07:37;;;;;;;11.43;10.67;;;15.90;99.90;;;;;;4849985;29;20441;-50
2023/09/30 07:10:07;;;;;;;11.60;10.93;;;15.90;99.90;;;;;;4849873;29;20532;-47
2023/09/30 07:12:35;;;;;;;12.27;11.40;;;15.80;99.90;;;;;;4850218;29;20521;-47
2023/09/30 07:15:04;;;;;;;11.30;10.30;;;15.80;99.90;;;;;;4849875;29;20504;-40
2023/09/30 07:17:30;;;;;;;11.63;10.83;;;15.80;99.90;;;;;;4849517;29;20479;-40
2023/09/30 07:19:56;;;;;;;12.70;11.40;;;15.80;99.90;;;;;;4850445;29;20524;-48
2023/09/30 07:22:22;;;;;;;13.00;12.00;;;15.90;99.90;;;;;;4850198;29;20188;-42
2023/09/30 07:24:47;;;;;;;13.50;12.40;;;16.00;99.90;;;;;;4850016;29;20863;-40
2023/09/30 07:27:13;;;;;;;13.40;12.10;;;16.10;99.90;;;;;;4848610;29;20589;-45
2023/09/30 07:29:39;;;;;;;11.50;10.60;;;16.20;99.90;;;;;;4850861;29;20543;-45
2023/09/30 07:32:07;;;;;;;12.67;11.57;;;16.40;99.90;;;;;;4849800;29;20192;-44
2023/09/30 07:34:32;;;;;;;10.30;9.70;;;16.50;99.90;;;;;;4849588;29;20189;-43
2023/09/30 07:36:58;;;;;;;11.60;10.77;;;16.60;99.90;;;;;;4850339;29;20433;-46
2023/09/30 07:39:24;;;;;;;12.40;11.57;;;16.70;99.90;;;;;;4849899;29;20192;-45
2023/09/30 07:41:49;;;;;;;12.67;11.67;;;16.70;99.90;;;;;;4850164;29;20582;-46
2023/09/30 07:44:15;;;;;;;13.17;11.87;;;16.90;99.90;;;;;;4849714;29;20224;-47
2023/09/30 07:46:40;;;;;;;11.20;10.30;;;16.80;99.90;;;;;;4849579;29;20276;-45
2023/09/30 07:49:08;;;;;;;12.07;11.17;;;16.80;99.90;;;;;;4850204;29;20731;-44
2023/09/30 07:51:35;;;;;;;11.50;10.70;;;17.00;99.90;;;;;;4850076;29;20664;-45
2023/09/30 07:54:01;;;;;;;12.30;11.43;;;17.30;99.90;;;;;;4848296;29;20634;-45
2023/09/30 07:56:26;;;;;;;12.20;11.10;;;17.50;99.90;;;;;;4849584;29;20426;-43
2023/09/30 07:58:52;;;;;;;11.40;10.70;;;17.70;99.90;;;;;;4849656;29;20185;-46
2023/09/30 08:01:18;;;;;;;12.90;11.90;;;18.00;99.90;;;;;;4849585;29;20276;-46
2023/09/30 08:03:43;;;;;;;11.17;10.47;;;18.40;99.90;;;;;;4849401;29;20192;-45
2023/09/30 08:06:09;;;;;;;11.57;10.70;;;18.50;99.90;;;;;;4849646;29;20215;-46
2023/09/30 08:08:36;;;;;;;16.57;11.10;;;18.80;99.90;;;;;;4849394;29;20232;-50
2023/09/30 08:11:01;;;;;;;11.70;10.87;;;18.70;99.60;;;;;;4848061;29;20245;-41
2023/09/30 08:13:29;;;;;;;11.70;10.90;;;18.80;99.90;;;;;;4849748;29;21016;-43
2023/09/30 08:15:55;;;;;;;12.07;10.97;;;18.90;99.10;;;;;;4848894;29;20240;-43
2023/09/30 08:18:21;;;;;;;11.37;10.67;;;19.00;97.70;;;;;;4848460;29;20421;-44
2023/09/30 08:20:47;;;;;;;11.63;10.93;;;19.00;97.40;;;;;;4849686;29;21205;-44
2023/09/30 08:23:13;;;;;;;11.60;10.90;;;18.90;97.20;;;;;;4849232;29;20472;-46
2023/09/30 08:25:39;;;;;;;10.97;10.30;;;18.90;96.60;;;;;;4849233;29;20291;-44
2023/09/30 08:28:05;;;;;;;10.90;10.10;;;18.60;97.40;;;;;;4849223;29;20478;-42
2023/09/30 08:30:32;;;;;;;11.33;10.43;;;18.50;97.40;;;;;;4848186;29;20452;-44
2023/09/30 08:32:58;;;;;;;11.13;10.23;;;18.50;96.50;;;;;;4849017;29;20429;-45
2023/09/30 08:35:24;;;;;;;12.20;11.20;;;18.60;96.80;;;;;;4849138;29;20512;-46
2023/09/30 08:37:50;;;;;;;12.03;11.00;;;18.70;96.60;;;;;;4849100;29;20485;-48
2023/09/30 08:40:20;;;;;;;10.70;10.00;;;18.80;96.80;;;;;;4848930;29;20675;-49
2023/09/30 08:42:53;;;;;;;11.80;10.80;;;19.00;96.00;;;;;;4849170;29;20185;-45
2023/09/30 08:45:19;;;;;;;11.40;10.60;;;19.40;95.20;;;;;;4848499;29;20521;-45
2023/09/30 08:47:46;;;;;;;11.50;10.70;;;19.70;94.70;;;;;;4848964;29;20425;-43
2023/09/30 08:50:13;;;;;;;11.00;10.43;;;20.10;92.80;;;;;;4848797;29;20192;-42
2023/09/30 08:52:40;;;;;;;11.07;10.33;;;20.20;91.10;;;;;;4847329;29;20837;-44
2023/09/30 08:55:08;;;;;;;12.00;11.30;;;20.40;90.60;;;;;;4848867;29;20750;-46
2023/09/30 08:57:39;;;;;;;11.37;10.60;;;20.60;90.80;;;;;;4849046;29;20432;-45
2023/09/30 09:00:06;;;;;;;11.87;11.07;;;20.90;90.10;;;;;;4848994;29;20542;-42
2023/09/30 09:02:35;;;;;;;9.93;9.40;;;21.40;88.30;;;;;;4848597;29;20952;-43
2023/09/30 09:05:02;;;;;;;11.27;10.50;;;21.90;80.90;;;;;;4848434;29;20476;-43
2023/09/30 09:07:27;;;;;;;10.77;10.00;;;21.90;79.60;;;;;;4848510;29;20409;-40
2023/09/30 09:10:10;;;;;;;10.43;9.63;;;21.80;79.20;;;;;;4848390;29;20461;-49
2023/09/30 09:12:38;;;;;;;11.40;10.67;;;21.80;77.20;;;;;;4848223;29;20556;-47
2023/09/30 09:15:08;;;;;;;10.43;9.93;;;22.00;75.40;;;;;;4848028;29;20512;-46
2023/09/30 09:17:42;;;;;;;11.10;10.50;;;22.00;74.10;;;;;;4847987;29;20446;-43
2023/09/30 09:20:13;;;;;;;12.00;11.10;;;22.10;72.00;;;;;;4848330;29;20524;-43
2023/09/30 09:22:43;;;;;;;11.20;10.50;;;22.20;73.70;;;;;;4848049;29;20433;-42
2023/09/30 09:25:10;;;;;;;10.20;9.60;;;22.30;69.30;;;;;;4848187;29;20984;-44
2023/09/30 09:27:37;;;;;;;11.17;10.47;;;22.50;66.50;;;;;;4848716;29;20958;-45
2023/09/30 09:30:24;;;;;;;11.30;10.60;;;22.50;65.70;;;;;;4846520;29;20437;-46
2023/09/30 09:33:00;;;;;;;10.60;10.00;;;22.40;67.10;;;;;;4848147;29;21061;-39
2023/09/30 09:35:28;;;;;;;10.30;9.73;;;22.20;66.90;;;;;;4847891;29;20920;-43
2023/09/30 09:38:12;;;;;;;11.57;10.80;;;22.40;67.20;;;;;;4848406;29;20524;-45
2023/09/30 09:40:40;;;;;;;11.23;10.40;;;22.90;66.80;;;;;;4847753;29;20944;-42
2023/09/30 09:43:06;;;;;;;11.07;10.47;;;23.20;65.30;;;;;;4846564;29;21020;-42
2023/09/30 09:45:39;;;;;;;10.40;9.80;;;23.60;61.10;;;;;;4847709;29;20525;-43
2023/09/30 09:48:06;;;;;;;11.73;10.93;;;23.20;62.20;;;;;;4847771;29;20433;-44
2023/09/30 09:50:32;;;;;;;10.63;9.93;;;22.50;62.90;;;;;;4847901;29;20500;-47
2023/09/30 09:53:00;;;;;;;11.50;10.80;;;22.10;64.20;;;;;;4847698;29;21000;-47
2023/09/30 09:55:27;;;;;;;10.70;10.00;;;21.60;66.90;;;;;;4847846;29;20195;-41
2023/09/30 09:57:53;;;;;;;10.67;9.97;;;21.80;67.20;;;;;;4847715;29;20447;-44
2023/09/30 10:00:21;;;;;;;10.33;9.73;;;22.20;64.20;;;;;;4847766;29;20429;-41
2023/09/30 10:02:47;;;;;;;11.03;10.23;;;23.00;64.30;;;;;;4847562;29;20421;-48
2023/09/30 10:05:14;;;;;;;11.50;10.70;;;23.90;62.20;;;;;;4847065;29;20473;-48
2023/09/30 10:07:53;;;;;;;10.60;9.90;;;24.60;57.80;;;;;;4847853;29;20496;-43
2023/09/30 10:10:21;;;;;;;10.13;9.47;;;25.60;56.60;;;;;;4848061;29;20464;-43
2023/09/30 10:12:47;;;;;;;10.90;10.20;;;26.00;51.90;;;;;;4847773;29;20958;-42
2023/09/30 10:15:24;;;;;;;11.10;10.40;;;26.20;51.80;;;;;;4848070;29;20422;-48
2023/09/30 10:18:06;;;;;;;10.03;9.47;;;26.90;49.00;;;;;;4847662;29;20916;-47
2023/09/30 10:20:36;;;;;;;10.20;9.60;;;27.00;46.30;;;;;;4847377;29;20831;-47
2023/09/30 10:23:17;;;;;;;10.30;9.70;;;26.40;46.00;;;;;;4847874;29;20769;-44
2023/09/30 10:25:47;;;;;;;10.27;9.60;;;25.50;48.60;;;;;;4847896;29;21401;-44
2023/09/30 10:28:34;;;;;;;10.80;10.10;;;25.40;47.50;;;;;;4847593;29;20417;-43
2023/09/30 10:31:12;;;;;;;10.30;9.80;;;25.10;46.60;;;;;;4848026;29;20493;-42
2023/09/30 10:34:00;;;;;;;11.47;10.87;;;25.10;47.10;;;;;;4847731;29;20921;-44
2023/09/30 10:36:37;;;;;;;10.43;9.93;;;25.20;47.10;;;;;;4847162;29;20919;-45
2023/09/30 10:39:03;;;;;;;10.63;9.90;;;25.80;46.40;;;;;;4847669;29;20485;-46
2023/09/30 10:41:41;;;;;;;9.90;9.40;;;26.40;44.50;;;;;;4849399;29;20473;-43
2023/09/30 10:44:24;;;;;;;11.13;10.53;;;27.40;41.20;;;;;;4851054;29;20547;-46
2023/09/30 10:46:50;;;;;;;10.10;9.30;;;27.90;39.00;;;;;;4851105;29;20843;-41
2023/09/30 10:49:25;;;;;;;10.23;9.57;;;28.20;38.60;;;;;;4851104;29;21142;-50
2023/09/30 10:51:55;;;;;;;10.33;9.80;;;28.20;36.00;;;;;;4850631;29;20192;-46
2023/09/30 10:54:33;;;;;;;10.90;10.20;;;27.50;36.30;;;;;;4850551;29;20710;-47
2023/09/30 10:57:00;;;;;;;10.73;10.00;;;26.50;36.90;;;;;;4850541;29;20463;-49
2023/09/30 10:59:27;;;;;;;9.67;9.10;;;25.80;39.80;;;;;;4851325;29;20417;-45
2023/09/30 11:01:53;;;;;;;10.17;9.37;;;25.80;39.90;;;;;;4850943;29;20429;-46
2023/09/30 11:04:19;;;;;;;10.30;9.60;;;26.50;39.10;;;;;;4850447;29;20487;-44
2023/09/30 11:06:46;;;;;;;9.97;9.47;;;27.30;37.90;;;;;;4850650;29;20935;-40
2023/09/30 11:09:22;;;;;;;10.07;9.50;;;27.40;36.20;;;;;;4850392;29;20464;-45
2023/09/30 11:11:49;;;;;;;10.40;9.73;;;27.50;36.40;;;;;;4850387;29;21138;-45
2023/09/30 11:14:27;;;;;;;10.70;10.10;;;27.40;35.00;;;;;;4850323;29;20452;-44
2023/09/30 11:16:55;;;;;;;11.23;10.23;;;27.60;35.40;;;;;;4850622;29;20508;-47
2023/09/30 11:19:21;;;;;;;11.17;10.40;;;28.00;35.30;;;;;;4850521;29;21157;-47
2023/09/30 11:21:52;;;;;;;10.13;9.63;;;28.50;33.20;;;;;;4850368;29;20416;-45
2023/09/30 11:24:18;;;;;;;10.80;10.00;;;28.90;32.10;;;;;;4850480;29;20564;-47
2023/09/30 11:26:47;;;;;;;10.33;9.70;;;28.30;31.60;;;;;;4850191;29;20452;-43
2023/09/30 11:29:17;;;;;;;10.90;10.30;;;27.80;33.20;;;;;;4850532;29;20200;-45
2023/09/30 11:31:47;;;;;;;10.07;9.40;;;27.50;32.70;;;;;;4850271;29;20489;-48
2023/09/30 11:34:19;;;;;;;9.10;8.60;;;26.80;33.40;;;;;;4849799;29;20425;-49
2023/09/30 11:36:52;;;;;;;9.77;9.27;;;26.50;34.20;;;;;;4849744;29;20413;-45
2023/09/30 11:39:36;;;;;;;9.77;9.07;;;26.40;34.80;;;;;;4850119;29;21198;-43
2023/09/30 11:42:02;;;;;;;10.47;9.90;;;27.10;34.40;;;;;;4850130;29;21038;-42
2023/09/30 11:44:30;;;;;;;11.13;10.30;;;27.80;33.50;;;;;;4849893;29;21341;-46
2023/09/30 11:46:59;;;;;;;10.27;9.67;;;28.70;32.80;;;;;;4850159;29;20421;-43
2023/09/30 11:49:39;;;;;;;10.50;10.00;;;29.30;30.80;;;;;;4850077;29;20481;-46
2023/09/30 11:52:10;;;;;;;10.03;9.43;;;29.90;29.90;;;;;;4849065;29;20508;-45
2023/09/30 11:54:40;;;;;;;10.13;9.63;;;29.60;29.30;;;;;;4850379;29;20421;-45
2023/09/30 11:57:10;;;;;;;10.47;9.87;;;29.70;29.30;;;;;;4849703;29;20425;-44
2023/09/30 11:59:38;;;;;;;11.10;10.50;;;29.60;29.70;;;;;;4849788;29;20436;-42
2023/09/30 12:02:05;;;;;;;10.20;9.53;;;29.80;30.00;;;;;;4849829;29;20778;-45
2023/09/30 12:04:31;;;;;;;10.87;10.03;;;30.40;28.40;;;;;;4849235;29;21179;-46
2023/09/30 12:06:57;;;;;;;9.70;9.20;;;30.60;27.60;;;;;;4849262;29;20580;-44
2023/09/30 12:09:27;;;;;;;10.80;10.20;;;31.00;27.20;;;;;;4849340;29;20572;-46
2023/09/30 12:11:53;;;;;;;10.27;9.57;;;31.10;27.00;;;;;;4849577;29;20185;-50
2023/09/30 12:14:20;;;;;;;10.07;9.50;;;31.40;26.60;;;;;;4849268;29;20428;-44
2023/09/30 12:16:47;;;;;;;10.87;10.27;;;31.80;25.00;;;;;;4848980;29;20421;-44
2023/09/30 12:19:17;;;;;;;11.00;10.30;;;31.20;25.40;;;;;;4849302;29;21283;-46
2023/09/30 12:21:46;;;;;;;10.17;9.57;;;29.80;26.20;;;;;;4849321;29;20587;-46
2023/09/30 12:24:16;;;;;;;9.90;9.30;;;28.40;27.70;;;;;;4849256;29;20820;-49
2023/09/30 12:26:49;;;;;;;10.67;9.87;;;28.50;29.10;;;;;;4849454;29;20482;-46
2023/09/30 12:29:18;;;;;;;11.00;10.40;;;28.70;28.70;;;;;;4849152;29;21077;-48
2023/09/30 12:31:49;;;;;;;10.90;10.30;;;28.80;28.60;;;;;;4849522;29;20615;-43
2023/09/30 12:34:15;;;;;;;10.27;9.70;;;28.50;28.30;;;;;;4849057;29;20433;-46